createdAt,value
2023-02-08T00:00:28.483Z,100.00
2023-02-08T00:02:56.511Z,100.00
2023-02-08T00:05:24.492Z,100.00
2023-02-08T00:07:52.463Z,100.00
2023-02-08T00:10:20.455Z,100.00
2023-02-08T00:12:48.420Z,100.00
2023-02-08T00:15:17.836Z,100.00
2023-02-08T00:17:45.756Z,100.00
2023-02-08T00:20:13.827Z,100.00
2023-02-08T00:22:41.753Z,100.00
2023-02-08T00:25:09.953Z,100.00
2023-02-08T00:27:37.932Z,100.00
2023-02-08T00:30:06.745Z,100.00
2023-02-08T00:32:36.075Z,100.00
2023-02-08T00:35:04.007Z,100.00
2023-02-08T00:37:31.936Z,100.00
2023-02-08T00:40:02.580Z,100.00
2023-02-08T00:42:30.556Z,100.00
2023-02-08T00:44:58.563Z,100.00
2023-02-08T00:47:26.541Z,100.00
2023-02-08T00:49:56.010Z,100.00
2023-02-08T00:52:23.985Z,100.00
2023-02-08T00:54:51.941Z,100.00
2023-02-08T00:57:19.904Z,100.00
2023-02-08T00:59:47.846Z,100.00
2023-02-08T01:02:15.832Z,100.00
2023-02-08T01:04:43.818Z,100.00
2023-02-08T01:07:13.195Z,100.00
2023-02-08T01:09:41.334Z,100.00
2023-02-08T01:12:09.270Z,100.00
2023-02-08T01:14:38.448Z,100.00
2023-02-08T01:17:06.403Z,100.00
2023-02-08T01:19:34.373Z,100.00
2023-02-08T01:22:02.341Z,100.00
2023-02-08T01:24:31.664Z,100.00
2023-02-08T01:26:59.660Z,100.00
2023-02-08T01:29:27.569Z,100.00
2023-02-08T01:31:55.597Z,100.00
2023-02-08T01:34:23.510Z,100.00
2023-02-08T01:36:51.467Z,100.00
2023-02-08T01:39:19.452Z,100.00
2023-02-08T01:41:48.791Z,100.00
2023-02-08T01:44:54.113Z,100.00
2023-02-08T01:47:22.024Z,100.00
2023-02-08T01:49:49.992Z,100.00
2023-02-08T01:52:18.749Z,100.00
2023-02-08T01:54:49.834Z,100.00
2023-02-08T01:57:19.231Z,100.00
2023-02-08T01:59:49.727Z,100.00
2023-02-08T02:02:18.483Z,100.00
2023-02-08T02:04:46.451Z,100.00
2023-02-08T02:07:14.380Z,100.00
2023-02-08T02:09:45.365Z,100.00
2023-02-08T02:12:13.342Z,100.00
2023-02-08T02:14:43.341Z,100.00
2023-02-08T02:17:11.937Z,100.00
2023-02-08T02:19:44.507Z,100.00
2023-02-08T02:22:24.765Z,100.00
2023-02-08T02:25:15.661Z,100.00
2023-02-08T02:27:53.367Z,100.00
2023-02-08T02:31:04.790Z,100.00
2023-02-08T02:33:39.528Z,100.00
2023-02-08T02:36:10.591Z,100.00
2023-02-08T02:38:44.044Z,100.00
2023-02-08T02:41:38.934Z,100.00
2023-02-08T02:44:06.071Z,100.00
2023-02-08T02:46:38.924Z,100.00
2023-02-08T02:49:09.976Z,100.00
2023-02-08T02:51:40.013Z,100.00
2023-02-08T02:54:09.603Z,100.00
2023-02-08T02:56:39.267Z,100.00
2023-02-08T02:59:07.805Z,100.00
2023-02-08T03:01:36.312Z,100.00
2023-02-08T03:04:14.956Z,100.00
2023-02-08T03:06:50.110Z,100.00
2023-02-08T03:09:36.599Z,100.00
2023-02-08T03:12:07.864Z,100.00
2023-02-08T03:14:37.177Z,100.00
2023-02-08T03:17:15.781Z,100.00
2023-02-08T03:19:48.057Z,100.00
2023-02-08T03:22:16.805Z,100.00
2023-02-08T03:24:50.383Z,100.00
2023-02-08T03:27:21.616Z,100.00
2023-02-08T03:29:51.575Z,100.00
2023-02-08T03:32:20.705Z,100.00
2023-02-08T03:34:52.692Z,100.00
2023-02-08T03:37:22.485Z,100.00
2023-02-08T03:39:50.654Z,100.00
2023-02-08T03:42:20.335Z,100.00
2023-02-08T03:44:49.495Z,100.00
2023-02-08T03:47:18.734Z,100.00
2023-02-08T03:49:46.967Z,100.00
2023-02-08T03:52:16.304Z,100.00
2023-02-08T03:54:46.170Z,100.00
2023-02-08T03:57:16.269Z,100.00
2023-02-08T03:59:45.205Z,100.00
2023-02-08T04:02:14.943Z,100.00
2023-02-08T04:04:44.499Z,100.00
2023-02-08T04:07:12.455Z,100.00
2023-02-08T04:09:41.756Z,100.00
2023-02-08T04:12:09.909Z,100.00
2023-02-08T04:14:37.824Z,100.00
2023-02-08T04:17:05.745Z,100.00
2023-02-08T04:19:33.723Z,100.00
2023-02-08T04:22:01.690Z,100.00
2023-02-08T04:24:29.661Z,100.00
2023-02-08T04:26:58.966Z,100.00
2023-02-08T04:29:26.939Z,100.00
2023-02-08T04:31:54.894Z,100.00
2023-02-08T04:34:23.136Z,100.00
2023-02-08T04:36:51.065Z,100.00
2023-02-08T04:39:19.020Z,100.00
2023-02-08T04:41:46.988Z,100.00
2023-02-08T04:44:16.354Z,100.00
2023-02-08T04:46:44.373Z,100.00
2023-02-08T04:49:12.388Z,100.00
2023-02-08T04:51:40.354Z,100.00
2023-02-08T04:54:08.375Z,100.00
2023-02-08T04:56:36.817Z,100.00
2023-02-08T04:59:04.848Z,100.00
2023-02-08T05:01:34.247Z,100.00
2023-02-08T05:04:02.212Z,100.00
2023-02-08T05:06:30.849Z,100.00
2023-02-08T05:08:58.807Z,100.00
2023-02-08T05:11:26.809Z,100.00
2023-02-08T05:13:54.817Z,100.00
2023-02-08T05:16:22.869Z,100.00
2023-02-08T05:18:52.199Z,100.00
2023-02-08T05:21:20.167Z,100.00
2023-02-08T05:23:48.129Z,100.00
2023-02-08T05:26:16.076Z,100.00
2023-02-08T05:28:44.034Z,100.00
2023-02-08T05:31:12.701Z,100.00
2023-02-08T05:33:40.750Z,100.00
2023-02-08T05:36:10.645Z,100.00
2023-02-08T05:38:38.707Z,100.00
2023-02-08T05:41:06.966Z,100.00
2023-02-08T05:43:34.898Z,100.00
2023-02-08T05:46:02.841Z,100.00
2023-02-08T05:48:31.535Z,100.00
2023-02-08T05:50:59.540Z,100.00
2023-02-08T05:53:28.898Z,100.00
2023-02-08T05:55:57.813Z,100.00
2023-02-08T05:58:25.911Z,100.00
2023-02-08T06:00:54.132Z,100.00
2023-02-08T06:03:22.076Z,100.00
2023-02-08T06:05:50.005Z,100.00
2023-02-08T06:08:17.975Z,100.00
2023-02-08T06:10:49.520Z,100.00
2023-02-08T06:13:17.473Z,100.00
2023-02-08T06:15:45.443Z,100.00
2023-02-08T06:18:13.482Z,100.00
2023-02-08T06:20:41.782Z,100.00
2023-02-08T06:23:09.904Z,100.00
2023-02-08T06:25:37.849Z,100.00
2023-02-08T06:28:10.732Z,100.00
2023-02-08T06:30:39.162Z,100.00
2023-02-08T06:33:07.412Z,100.00
2023-02-08T06:35:35.388Z,100.00
2023-02-08T06:38:03.304Z,100.00
2023-02-08T06:40:31.526Z,100.00
2023-02-08T06:42:59.476Z,100.00
2023-02-08T06:45:28.969Z,100.00
2023-02-08T06:47:56.943Z,100.00
2023-02-08T06:50:24.929Z,100.00
2023-02-08T06:52:52.890Z,100.00
2023-02-08T06:55:20.828Z,100.00
2023-02-08T06:57:48.781Z,100.00
2023-02-08T07:00:17.052Z,100.00
2023-02-08T07:02:47.342Z,100.00
2023-02-08T07:05:15.372Z,100.00
2023-02-08T07:07:43.304Z,97.26
2023-02-08T07:10:11.323Z,92.64
2023-02-08T07:12:39.244Z,89.92
2023-02-08T07:15:07.684Z,90.12
2023-02-08T07:17:35.642Z,85.24
2023-02-08T07:20:05.119Z,85.59
2023-02-08T07:22:33.066Z,83.85
2023-02-08T07:25:01.049Z,86.50
2023-02-08T07:27:29.027Z,82.62
2023-02-08T07:29:56.957Z,80.47
2023-02-08T07:32:24.951Z,81.35
2023-02-08T07:34:54.077Z,78.56
2023-02-08T07:37:23.367Z,79.12
2023-02-08T07:39:51.309Z,78.60
2023-02-08T07:42:19.274Z,78.21
2023-02-08T07:44:47.266Z,72.97
2023-02-08T07:47:15.235Z,72.96
2023-02-08T07:49:43.192Z,70.40
2023-02-08T07:52:11.106Z,70.71
2023-02-08T07:54:40.517Z,70.02
2023-02-08T07:57:08.446Z,70.05
2023-02-08T07:59:36.420Z,70.26
2023-02-08T08:02:04.560Z,74.20
2023-02-08T08:04:32.511Z,77.63
2023-02-08T08:07:00.488Z,75.60
2023-02-08T08:09:28.607Z,75.74
2023-02-08T08:11:57.949Z,72.24
2023-02-08T08:14:25.893Z,69.45
2023-02-08T08:16:53.870Z,66.33
2023-02-08T08:19:21.795Z,66.46
2023-02-08T08:21:49.869Z,64.67
2023-02-08T08:24:17.823Z,64.56
2023-02-08T08:26:45.795Z,63.76
2023-02-08T08:29:15.088Z,61.55
2023-02-08T08:31:43.971Z,62.36
2023-02-08T08:34:12.003Z,60.77
2023-02-08T08:36:39.952Z,60.68
2023-02-08T08:39:07.916Z,59.18
2023-02-08T08:41:37.049Z,57.49
2023-02-08T08:44:05.145Z,57.27
2023-02-08T08:46:34.569Z,57.60
2023-02-08T08:49:03.208Z,57.75
2023-02-08T08:51:35.185Z,57.30
2023-02-08T08:54:03.173Z,58.25
2023-02-08T08:56:31.101Z,57.47
2023-02-08T08:58:59.115Z,59.34
2023-02-08T09:01:27.091Z,59.58
2023-02-08T09:03:56.448Z,59.11
2023-02-08T09:06:24.370Z,63.29
2023-02-08T09:08:52.317Z,64.99
2023-02-08T09:11:20.308Z,67.74
2023-02-08T09:13:51.700Z,70.76
2023-02-08T09:16:19.905Z,72.43
2023-02-08T09:18:47.928Z,74.40
2023-02-08T09:21:18.332Z,77.85
2023-02-08T09:23:47.484Z,76.79
2023-02-08T09:26:16.443Z,76.19
2023-02-08T09:28:44.472Z,75.67
2023-02-08T09:31:13.347Z,75.24
2023-02-08T09:33:41.383Z,77.54
2023-02-08T09:36:10.184Z,81.00
2023-02-08T09:38:39.636Z,82.01
2023-02-08T09:41:14.412Z,82.06
2023-02-08T09:43:45.725Z,79.65
2023-02-08T09:46:17.214Z,77.13
2023-02-08T09:48:45.376Z,78.54
2023-02-08T09:51:19.547Z,79.33
2023-02-08T09:53:51.710Z,80.00
2023-02-08T09:56:21.585Z,82.09
2023-02-08T09:58:51.035Z,82.95
2023-02-08T10:01:20.236Z,84.29
2023-02-08T10:03:48.339Z,84.28
2023-02-08T10:06:17.047Z,85.93
2023-02-08T10:08:45.598Z,85.52
2023-02-08T10:11:30.424Z,86.74
2023-02-08T10:14:05.921Z,88.56
2023-02-08T10:16:44.175Z,88.76
2023-02-08T10:19:15.830Z,90.85
2023-02-08T10:21:50.737Z,91.94
2023-02-08T10:24:32.642Z,95.73
2023-02-08T10:27:05.360Z,98.72
2023-02-08T10:29:44.155Z,100.00
2023-02-08T10:32:20.162Z,100.00
2023-02-08T10:34:50.221Z,100.00
2023-02-08T10:37:20.664Z,100.00
2023-02-08T10:39:49.912Z,100.00
2023-02-08T10:42:22.549Z,99.94
2023-02-08T10:45:06.551Z,94.77
2023-02-08T10:47:43.726Z,90.39
2023-02-08T10:50:18.422Z,85.02
2023-02-08T10:52:49.330Z,83.46
2023-02-08T10:55:19.649Z,85.89
2023-02-08T10:57:52.680Z,84.93
2023-02-08T11:00:36.350Z,84.60
2023-02-08T11:03:10.160Z,85.42
2023-02-08T11:05:42.842Z,87.31
2023-02-08T11:08:21.903Z,89.27
2023-02-08T11:11:02.764Z,90.88
2023-02-08T11:13:36.984Z,88.31
2023-02-08T11:16:17.612Z,85.99
2023-02-08T11:18:50.746Z,84.80
2023-02-08T11:21:27.520Z,85.61
2023-02-08T11:23:57.843Z,84.73
2023-02-08T11:26:33.987Z,86.74
2023-02-08T11:29:06.182Z,87.50
2023-02-08T11:31:38.640Z,90.83
2023-02-08T11:34:07.367Z,93.11
2023-02-08T11:36:36.014Z,95.37
2023-02-08T11:39:04.762Z,98.68
2023-02-08T11:41:32.949Z,100.00
2023-02-08T11:44:04.522Z,99.77
2023-02-08T11:46:36.758Z,99.50
2023-02-08T11:49:04.790Z,100.00
2023-02-08T11:51:34.567Z,97.99
2023-02-08T11:54:02.592Z,99.12
2023-02-08T11:56:31.339Z,96.59
2023-02-08T11:59:06.845Z,91.97
2023-02-08T12:01:35.566Z,92.69
2023-02-08T12:04:04.621Z,96.04
2023-02-08T12:06:46.424Z,99.50
2023-02-08T12:09:21.324Z,100.00
2023-02-08T12:11:49.884Z,100.00
2023-02-08T12:14:26.126Z,100.00
2023-02-08T12:17:07.964Z,100.00
2023-02-08T12:20:04.452Z,100.00
2023-02-08T12:22:32.737Z,100.00
2023-02-08T12:25:07.465Z,100.00
2023-02-08T12:27:41.090Z,100.00
2023-02-08T12:30:14.167Z,100.00
2023-02-08T12:33:07.984Z,100.00
2023-02-08T12:36:02.794Z,100.00
2023-02-08T12:38:57.392Z,100.00
2023-02-08T12:41:30.152Z,100.00
2023-02-08T12:44:02.365Z,100.00
2023-02-08T12:46:41.278Z,100.00
2023-02-08T12:49:18.431Z,100.00
2023-02-08T12:51:49.549Z,100.00
2023-02-08T12:54:19.166Z,100.00
2023-02-08T12:57:00.322Z,100.00
2023-02-08T12:59:33.871Z,100.00
2023-02-08T13:02:05.087Z,100.00
2023-02-08T13:04:34.479Z,100.00
2023-02-08T13:07:04.183Z,100.00
2023-02-08T13:09:39.897Z,100.00
2023-02-08T13:12:09.671Z,100.00
2023-02-08T13:14:39.152Z,100.00
2023-02-08T13:17:15.909Z,100.00
2023-02-08T13:19:59.628Z,100.00
2023-02-08T13:22:28.379Z,100.00
2023-02-08T13:25:08.770Z,100.00
2023-02-08T13:27:37.095Z,100.00
2023-02-08T13:30:05.500Z,100.00
2023-02-08T13:32:36.539Z,100.00
2023-02-08T13:35:06.783Z,100.00
2023-02-08T13:37:35.704Z,100.00
2023-02-08T13:40:05.881Z,100.00
2023-02-08T13:42:36.296Z,100.00
2023-02-08T13:45:05.061Z,100.00
2023-02-08T13:47:35.493Z,100.00
2023-02-08T13:50:07.511Z,100.00
2023-02-08T13:52:49.518Z,100.00
2023-02-08T13:55:43.204Z,100.00
2023-02-08T13:58:39.444Z,100.00
2023-02-08T14:01:25.381Z,100.00
2023-02-08T14:04:32.893Z,100.00
2023-02-08T14:07:05.671Z,100.00
2023-02-08T14:09:44.068Z,100.00
2023-02-08T14:12:15.159Z,100.00
2023-02-08T14:14:43.145Z,100.00
2023-02-08T14:17:22.268Z,100.00
2023-02-08T14:19:57.954Z,100.00
2023-02-08T14:22:27.565Z,100.00
2023-02-08T14:25:02.235Z,100.00
2023-02-08T14:27:32.552Z,100.00
2023-02-08T14:30:01.166Z,100.00
2023-02-08T14:32:30.140Z,100.00
2023-02-08T14:35:02.278Z,100.00
2023-02-08T14:37:32.588Z,100.00
2023-02-08T14:40:35.146Z,100.00
2023-02-08T14:43:03.554Z,100.00
2023-02-08T14:45:32.366Z,100.00
2023-02-08T14:48:05.280Z,100.00
2023-02-08T14:50:55.624Z,100.00
2023-02-08T14:53:36.889Z,100.00
2023-02-08T14:56:07.776Z,100.00
2023-02-08T14:58:36.676Z,100.00
2023-02-08T15:01:07.512Z,100.00
2023-02-08T15:03:35.523Z,100.00
2023-02-08T15:06:33.617Z,100.00
2023-02-08T15:09:02.935Z,100.00
2023-02-08T15:11:32.726Z,100.00
2023-02-08T15:14:02.740Z,100.00
2023-02-08T15:16:35.251Z,100.00
2023-02-08T15:19:04.073Z,100.00
2023-02-08T15:21:36.637Z,100.00
2023-02-08T15:24:07.941Z,100.00
2023-02-08T15:26:36.169Z,100.00
2023-02-08T15:29:04.230Z,100.00
2023-02-08T15:31:33.774Z,100.00
2023-02-08T15:34:02.474Z,100.00
2023-02-08T15:36:31.512Z,100.00
2023-02-08T15:39:00.432Z,100.00
2023-02-08T15:41:30.772Z,100.00
2023-02-08T15:44:14.432Z,100.00
2023-02-08T15:46:43.939Z,100.00
2023-02-08T15:49:13.636Z,100.00
2023-02-08T15:51:41.572Z,100.00
2023-02-08T15:54:12.707Z,100.00
2023-02-08T15:56:42.643Z,100.00
2023-02-08T15:59:15.612Z,100.00
2023-02-08T16:01:45.848Z,100.00
2023-02-08T16:04:13.775Z,100.00
2023-02-08T16:06:46.322Z,100.00
2023-02-08T16:09:15.017Z,100.00
2023-02-08T16:11:46.442Z,100.00
2023-02-08T16:14:15.110Z,100.00
2023-02-08T16:16:44.108Z,100.00
2023-02-08T16:19:21.338Z,100.00
2023-02-08T16:21:49.284Z,100.00
2023-02-08T16:24:25.420Z,100.00
2023-02-08T16:26:58.867Z,100.00
2023-02-08T16:29:28.192Z,100.00
2023-02-08T16:32:03.518Z,100.00
2023-02-08T16:34:33.320Z,100.00
2023-02-08T16:37:01.579Z,100.00
2023-02-08T16:39:53.186Z,100.00
2023-02-08T16:42:29.340Z,100.00
2023-02-08T16:45:14.221Z,100.00
2023-02-08T16:47:42.781Z,100.00
2023-02-08T16:50:11.678Z,100.00
2023-02-08T16:52:39.628Z,100.00
2023-02-08T16:55:08.291Z,100.00
2023-02-08T16:57:42.460Z,100.00
2023-02-08T17:00:21.631Z,100.00
2023-02-08T17:02:49.633Z,100.00
2023-02-08T17:05:17.853Z,100.00
2023-02-08T17:07:45.831Z,100.00
2023-02-08T17:10:18.851Z,100.00
2023-02-08T17:12:48.127Z,100.00
2023-02-08T17:15:16.300Z,100.00
2023-02-08T17:17:44.247Z,100.00
2023-02-08T17:20:20.962Z,100.00
2023-02-08T17:22:48.931Z,100.00
2023-02-08T17:25:19.161Z,100.00
2023-02-08T17:27:53.139Z,100.00
2023-02-08T17:30:23.095Z,100.00
2023-02-08T17:32:51.074Z,100.00
2023-02-08T17:35:19.277Z,100.00
2023-02-08T17:37:47.227Z,100.00
2023-02-08T17:40:15.108Z,100.00
2023-02-08T17:42:43.079Z,100.00
2023-02-08T17:45:12.555Z,100.00
2023-02-08T17:47:41.792Z,100.00
2023-02-08T17:50:10.510Z,100.00
2023-02-08T17:52:38.860Z,100.00
2023-02-08T17:55:07.472Z,100.00
2023-02-08T17:57:35.926Z,100.00
2023-02-08T18:00:04.170Z,100.00
2023-02-08T18:02:33.565Z,100.00
2023-02-08T18:05:01.555Z,100.00
2023-02-08T18:07:29.557Z,100.00
2023-02-08T18:09:57.579Z,100.00
2023-02-08T18:12:25.596Z,100.00
2023-02-08T18:14:53.600Z,100.00
2023-02-08T18:17:21.531Z,100.00
2023-02-08T18:19:52.394Z,100.00
2023-02-08T18:22:21.805Z,100.00
2023-02-08T18:24:50.705Z,100.00
2023-02-08T18:27:18.792Z,100.00
2023-02-08T18:29:46.867Z,100.00
2023-02-08T18:32:14.914Z,100.00
2023-02-08T18:34:45.279Z,100.00
2023-02-08T18:37:14.637Z,100.00
2023-02-08T18:39:42.612Z,100.00
2023-02-08T18:42:13.915Z,100.00
2023-02-08T18:44:41.909Z,100.00
2023-02-08T18:47:09.997Z,100.00
2023-02-08T18:49:40.941Z,100.00
2023-02-08T18:52:09.745Z,100.00
2023-02-08T18:54:39.470Z,100.00
2023-02-08T18:57:09.628Z,100.00
2023-02-08T18:59:37.760Z,100.00
2023-02-08T19:02:07.139Z,100.00
2023-02-08T19:04:37.822Z,100.00
2023-02-08T19:07:05.800Z,100.00
2023-02-08T19:09:35.983Z,100.00
2023-02-08T19:12:05.656Z,100.00
2023-02-08T19:14:33.655Z,100.00
2023-02-08T19:17:02.208Z,100.00
2023-02-08T19:19:30.157Z,100.00
2023-02-08T19:21:58.088Z,100.00
2023-02-08T19:24:26.033Z,100.00
2023-02-08T19:26:53.969Z,100.00
2023-02-08T19:29:23.452Z,100.00
2023-02-08T19:31:51.472Z,100.00
2023-02-08T19:34:19.511Z,100.00
2023-02-08T19:36:49.300Z,100.00
2023-02-08T19:39:18.507Z,100.00
2023-02-08T19:41:46.629Z,100.00
2023-02-08T19:44:15.261Z,100.00
2023-02-08T19:46:48.216Z,100.00
2023-02-08T19:49:16.188Z,100.00
2023-02-08T19:51:44.151Z,100.00
2023-02-08T19:54:13.379Z,100.00
2023-02-08T19:56:41.402Z,100.00
2023-02-08T19:59:21.829Z,100.00
2023-02-08T20:01:51.222Z,100.00
2023-02-08T20:04:19.329Z,100.00
2023-02-08T20:06:47.388Z,100.00
2023-02-08T20:09:16.529Z,100.00
2023-02-08T20:11:56.450Z,100.00
2023-02-08T20:14:25.521Z,100.00
2023-02-08T20:16:55.413Z,100.00
2023-02-08T20:19:23.436Z,100.00
2023-02-08T20:21:51.443Z,100.00
2023-02-08T20:24:19.572Z,100.00
2023-02-08T20:26:48.009Z,100.00
2023-02-08T20:29:16.165Z,100.00
2023-02-08T20:31:46.660Z,100.00
2023-02-08T20:34:16.671Z,100.00
2023-02-08T20:36:54.514Z,100.00
2023-02-08T20:39:30.412Z,100.00
2023-02-08T20:41:58.395Z,100.00
2023-02-08T20:44:28.529Z,100.00
2023-02-08T20:46:56.550Z,100.00
2023-02-08T20:49:26.970Z,100.00
2023-02-08T20:51:55.053Z,100.00
2023-02-08T20:54:24.728Z,100.00
2023-02-08T20:56:53.030Z,100.00
2023-02-08T20:59:21.126Z,100.00
2023-02-08T21:01:49.124Z,100.00
2023-02-08T21:04:18.063Z,100.00
2023-02-08T21:06:47.419Z,100.00
2023-02-08T21:09:16.267Z,100.00
2023-02-08T21:11:44.345Z,100.00
2023-02-08T21:14:13.709Z,100.00
2023-02-08T21:16:41.697Z,100.00
2023-02-08T21:19:10.854Z,100.00
2023-02-08T21:21:38.805Z,100.00
2023-02-08T21:24:08.567Z,100.00
2023-02-08T21:26:36.470Z,100.00
2023-02-08T21:29:06.163Z,100.00
2023-02-08T21:31:34.384Z,100.00
2023-02-08T21:34:02.691Z,100.00
2023-02-08T21:36:30.710Z,100.00
2023-02-08T21:38:58.714Z,100.00
2023-02-08T21:41:29.112Z,100.00
2023-02-08T21:43:58.199Z,100.00
2023-02-08T21:46:27.798Z,100.00
2023-02-08T21:49:13.074Z,100.00
2023-02-08T21:51:58.516Z,100.00
2023-02-08T21:54:45.855Z,100.00
2023-02-08T21:57:17.890Z,100.00
2023-02-08T21:59:45.932Z,100.00
2023-02-08T22:02:15.625Z,100.00
2023-02-08T22:05:00.744Z,100.00
2023-02-08T22:07:28.925Z,100.00
2023-02-08T22:09:56.942Z,100.00
2023-02-08T22:12:26.287Z,100.00
2023-02-08T22:14:54.223Z,100.00
2023-02-08T22:17:22.266Z,100.00
2023-02-08T22:19:50.238Z,100.00
2023-02-08T22:22:18.206Z,100.00
2023-02-08T22:24:46.164Z,100.00
2023-02-08T22:27:14.105Z,100.00
2023-02-08T22:29:43.460Z,100.00
2023-02-08T22:32:12.666Z,100.00
2023-02-08T22:34:40.645Z,100.00
2023-02-08T22:37:08.720Z,100.00
2023-02-08T22:39:36.727Z,100.00
2023-02-08T22:42:08.483Z,100.00
2023-02-08T22:44:36.517Z,100.00
2023-02-08T22:47:06.429Z,100.00
2023-02-08T22:49:34.426Z,100.00
2023-02-08T22:52:02.412Z,100.00
2023-02-08T22:54:30.371Z,100.00
2023-02-08T22:56:58.370Z,100.00
2023-02-08T22:59:26.364Z,100.00
2023-02-08T23:01:54.422Z,100.00
2023-02-08T23:04:23.792Z,100.00
2023-02-08T23:06:51.755Z,100.00
2023-02-08T23:09:19.746Z,100.00
2023-02-08T23:11:47.718Z,100.00
2023-02-08T23:14:15.892Z,100.00
2023-02-08T23:16:43.871Z,100.00
2023-02-08T23:19:14.364Z,100.00
2023-02-08T23:21:43.777Z,100.00
2023-02-08T23:24:11.872Z,100.00
2023-02-08T23:26:40.007Z,100.00
2023-02-08T23:29:07.936Z,100.00
2023-02-08T23:31:36.096Z,100.00
2023-02-08T23:34:04.134Z,100.00
2023-02-08T23:36:32.070Z,100.00
2023-02-08T23:39:03.345Z,100.00
2023-02-08T23:41:31.306Z,100.00
2023-02-08T23:43:59.315Z,100.00
2023-02-08T23:46:28.207Z,100.00
2023-02-08T23:48:56.307Z,100.00
2023-02-08T23:51:25.115Z,100.00
2023-02-08T23:53:53.294Z,100.00
2023-02-08T23:56:23.841Z,100.00
2023-02-08T23:58:52.516Z,100.00
